PWSweather.com
Personal Weather Stations
Station Observations

WarszawaPL

Lat: 52.262083, Lon: 21.0228161

Elevation: 292

Station Type: Vellman WS1080

http://meteostacja.waw.pl/

Latest ConditionsUpdated 11:30:00 PM GMT+01:01 Tuesday, Jul 17, 2018
Currently Today's Max Today's Min Today's Average
Temperature 68.7°F20.4°C 80.1°F26.7°C 65.7°F18.7°C 71.1°F21.7°C
Dew Point 65.7°F18.7°C 67.3°F19.6°C 61.6°F16.4°C 64.5°F18.1°C
Winds 0.7 mph NW1.1 kmh NW 1.6 mph -2.6 kmh - - 0.2 mph 0.3 kmh
Wind Gusts 3.1 mph5.0 kmh 6.0 mph9.7 kmh - -
Humidity 90% 100% 61% 81%
Pressure 29.67 in1004.7 mb 29.77 in1008.1 mb 29.65 in1004.1 mb -
Precipitation - 0.01 in0.3 mm - -
Hour Temp Dew Point Humidity Winds Wind Gusts Pressure Precip Precip Rate Daily Precip Total
11:30 PM 68.7°F20.4°C 65.7°F18.7°C 90% 0.7 mph NW1.1 kmh NW 3.1 mph5.0 kmh 29.67 in1004.7 mb 0.01 in0.3 mm 0.02 in0.5 mm 0.01 in0.3 mm
11:00 PM 69.3°F20.7°C 65.3°F18.5°C 87% Calm Calm 1.6 mph2.6 kmh 29.68 in1005.1 mb 0.00 in0.0 mm 0.00 in0.0 mm 0.04 in1.0 mm
10:30 PM 69.3°F20.7°C 64.9°F18.3°C 86% Calm Calm 2.2 mph3.5 kmh 29.67 in1004.7 mb 0.00 in0.0 mm 0.00 in0.0 mm 0.05 in1.3 mm
10:00 PM 69.3°F20.7°C 64.2°F17.9°C 84% Calm Calm 1.6 mph2.6 kmh 29.67 in1004.7 mb 0.00 in0.0 mm 0.00 in0.0 mm 0.05 in1.3 mm
09:30 PM 69.6°F20.9°C 64.3°F17.9°C 83% Calm Calm 0.7 mph1.1 kmh 29.68 in1005.1 mb 0.00 in0.0 mm 0.00 in0.0 mm 0.05 in1.3 mm
09:00 PM 70.2°F21.2°C 64.1°F17.8°C 81% Calm Calm 0.7 mph1.1 kmh 29.68 in1005.1 mb 0.00 in0.0 mm 0.00 in0.0 mm 0.05 in1.3 mm
08:30 PM 70.9°F21.6°C 64.4°F18.0°C 80% Calm Calm 1.6 mph2.6 kmh 29.67 in1004.7 mb 0.00 in0.0 mm 0.00 in0.0 mm 0.05 in1.3 mm
08:00 PM 71.8°F22.1°C 64.2°F17.9°C 77% Calm Calm 0.7 mph1.1 kmh 29.67 in1004.7 mb 0.00 in0.0 mm 0.00 in0.0 mm 0.05 in1.3 mm
07:30 PM 72.9°F22.7°C 63.7°F17.6°C 73% Calm Calm 0.7 mph1.1 kmh 29.68 in1005.1 mb 0.00 in0.0 mm 0.00 in0.0 mm 0.05 in1.3 mm
07:00 PM 75.6°F24.2°C 65.1°F18.4°C 70% Calm Calm 3.1 mph5.0 kmh 29.67 in1004.7 mb 0.00 in0.0 mm 0.00 in0.0 mm 0.05 in1.3 mm
06:30 PM 77.4°F25.2°C 66.0°F18.9°C 68% Calm Calm 1.6 mph2.6 kmh 29.66 in1004.4 mb 0.00 in0.0 mm 0.00 in0.0 mm 0.05 in1.3 mm
06:00 PM 80.1°F26.7°C 66.4°F19.1°C 63% Calm Calm 1.6 mph2.6 kmh 29.66 in1004.4 mb 0.00 in0.0 mm 0.00 in0.0 mm 0.05 in1.3 mm
05:30 PM 78.8°F26.0°C 66.5°F19.2°C 66% 0.7 mph SW1.1 kmh SW 2.2 mph3.5 kmh 29.66 in1004.4 mb 0.00 in0.0 mm 0.00 in0.0 mm 0.05 in1.3 mm
05:00 PM 74.7°F23.7°C 64.3°F17.9°C 70% 1.6 mph S2.6 kmh S 4.5 mph7.2 kmh 29.65 in1004.1 mb 0.00 in0.0 mm 0.00 in0.0 mm 0.05 in1.3 mm
04:30 PM 73.8°F23.2°C 64.2°F17.9°C 72% Calm Calm 6.0 mph9.7 kmh 29.65 in1004.1 mb 0.00 in0.0 mm 0.00 in0.0 mm 0.05 in1.3 mm
04:00 PM 74.3°F23.5°C 63.9°F17.7°C 70% Calm Calm 2.2 mph3.5 kmh 29.65 in1004.1 mb 0.00 in0.0 mm 0.00 in0.0 mm 0.05 in1.3 mm
03:30 PM 78.6°F25.9°C 64.6°F18.1°C 62% 0.7 mph NW1.1 kmh NW 3.1 mph5.0 kmh 29.65 in1004.1 mb 0.00 in0.0 mm 0.00 in0.0 mm 0.05 in1.3 mm
03:00 PM 79.3°F26.3°C 66.1°F18.9°C 64% Calm Calm 3.1 mph5.0 kmh 29.66 in1004.4 mb 0.00 in0.0 mm 0.00 in0.0 mm 0.05 in1.3 mm
02:30 PM 79.5°F26.4°C 64.9°F18.3°C 61% Calm Calm 3.1 mph5.0 kmh 29.66 in1004.4 mb 0.00 in0.0 mm 0.00 in0.0 mm 0.05 in1.3 mm
02:00 PM 77.2°F25.1°C 65.0°F18.3°C 66% 0.7 mph WSW1.1 kmh WSW 1.6 mph2.6 kmh 29.67 in1004.7 mb 0.00 in0.0 mm 0.00 in0.0 mm 0.05 in1.3 mm
01:30 PM 74.5°F23.6°C 64.1°F17.8°C 70% Calm Calm 2.2 mph3.5 kmh 29.67 in1004.7 mb 0.00 in0.0 mm 0.00 in0.0 mm 0.05 in1.3 mm
01:00 PM 74.7°F23.7°C 64.3°F17.9°C 70% Calm Calm 2.2 mph3.5 kmh 29.68 in1005.1 mb 0.00 in0.0 mm 0.00 in0.0 mm 0.05 in1.3 mm
12:30 PM 74.7°F23.7°C 64.3°F17.9°C 70% Calm Calm 2.2 mph3.5 kmh 29.68 in1005.1 mb 0.00 in0.0 mm 0.00 in0.0 mm 0.05 in1.3 mm
12:00 PM 72.5°F22.5°C 63.0°F17.2°C 72% Calm Calm 1.6 mph2.6 kmh 29.69 in1005.4 mb 0.00 in0.0 mm 0.00 in0.0 mm 0.05 in1.3 mm
11:30 AM 74.1°F23.4°C 63.7°F17.6°C 70% Calm Calm 2.2 mph3.5 kmh 29.69 in1005.4 mb 0.00 in0.0 mm 0.00 in0.0 mm 0.05 in1.3 mm
11:00 AM 71.2°F21.8°C 64.1°F17.8°C 78% Calm Calm 1.6 mph2.6 kmh 29.70 in1005.8 mb 0.00 in0.0 mm 0.00 in0.0 mm 0.05 in1.3 mm
10:30 AM 70.3°F21.3°C 62.8°F17.1°C 77% Calm Calm 2.2 mph3.5 kmh 29.70 in1005.8 mb 0.00 in0.0 mm 0.00 in0.0 mm 0.05 in1.3 mm
10:00 AM 70.3°F21.3°C 62.4°F16.9°C 76% Calm Calm 6.0 mph9.7 kmh 29.69 in1005.4 mb 0.00 in0.0 mm 0.00 in0.0 mm 0.05 in1.3 mm
09:30 AM 70.7°F21.5°C 62.0°F16.7°C 74% 1.6 mph SSE2.6 kmh SSE 5.4 mph8.7 kmh 29.69 in1005.4 mb 0.00 in0.0 mm 0.00 in0.0 mm 0.05 in1.3 mm
09:00 AM 73.0°F22.8°C 61.9°F16.6°C 68% 0.7 mph NW1.1 kmh NW 3.1 mph5.0 kmh 29.69 in1005.4 mb 0.00 in0.0 mm 0.00 in0.0 mm 0.05 in1.3 mm
08:30 AM 71.1°F21.7°C 62.0°F16.7°C 73% Calm Calm 3.8 mph6.1 kmh 29.70 in1005.8 mb 0.00 in0.0 mm 0.00 in0.0 mm 0.05 in1.3 mm
08:00 AM 70.2°F21.2°C 62.6°F17.0°C 77% Calm Calm 1.6 mph2.6 kmh 29.70 in1005.8 mb 0.00 in0.0 mm 0.00 in0.0 mm 0.05 in1.3 mm
07:30 AM 69.1°F20.6°C 61.6°F16.4°C 77% 0.7 mph NNW1.1 kmh NNW 2.2 mph3.5 kmh 29.71 in1006.1 mb 0.00 in0.0 mm 0.00 in0.0 mm 0.05 in1.3 mm
07:00 AM 68.5°F20.3°C 62.2°F16.8°C 80% Calm Calm 5.4 mph8.7 kmh 29.72 in1006.4 mb 0.00 in0.0 mm 0.00 in0.0 mm 0.05 in1.3 mm
06:30 AM 68.5°F20.3°C 64.2°F17.9°C 86% 0.7 mph N1.1 kmh N 3.1 mph5.0 kmh 29.72 in1006.4 mb 0.00 in0.0 mm 0.00 in0.0 mm 0.05 in1.3 mm
06:00 AM 68.2°F20.1°C 67.3°F19.6°C 97% 0.7 mph SW1.1 kmh SW 2.2 mph3.5 kmh 29.72 in1006.4 mb 0.00 in0.0 mm 0.00 in0.0 mm 0.05 in1.3 mm
05:30 AM 66.0°F18.9°C 66.0°F18.9°C 100% Calm Calm 1.6 mph2.6 kmh 29.73 in1006.8 mb 0.00 in0.0 mm 0.00 in0.0 mm 0.05 in1.3 mm
05:00 AM 65.8°F18.8°C 65.9°F18.8°C 100% Calm Calm 2.2 mph3.5 kmh 29.73 in1006.8 mb 0.00 in0.0 mm 0.00 in0.0 mm 0.05 in1.3 mm
04:30 AM 65.8°F18.8°C 65.9°F18.8°C 100% Calm Calm 3.1 mph5.0 kmh 29.73 in1006.8 mb 0.00 in0.0 mm 0.00 in0.0 mm 0.05 in1.3 mm
04:00 AM 65.7°F18.7°C 65.7°F18.7°C 100% Calm Calm 3.1 mph5.0 kmh 29.73 in1006.8 mb 0.00 in0.0 mm 0.00 in0.0 mm 0.05 in1.3 mm
03:30 AM 65.7°F18.7°C 65.7°F18.7°C 100% 0.7 mph SSE1.1 kmh SSE 2.2 mph3.5 kmh 29.73 in1006.8 mb 0.00 in0.0 mm 0.00 in0.0 mm 0.05 in1.3 mm
03:00 AM 66.0°F18.9°C 66.0°F18.9°C 100% Calm Calm 0.7 mph1.1 kmh 29.73 in1006.8 mb 0.04 in1.0 mm 0.00 in0.0 mm 0.05 in1.3 mm
02:30 AM 66.0°F18.9°C 65.2°F18.4°C 97% Calm Calm 0.7 mph1.1 kmh 29.74 in1007.1 mb 0.04 in1.0 mm 0.06 in1.5 mm 0.05 in1.3 mm
02:00 AM 66.4°F19.1°C 65.5°F18.6°C 97% Calm Calm 1.6 mph2.6 kmh 29.74 in1007.1 mb 0.01 in0.3 mm 0.00 in0.0 mm 0.01 in0.3 mm
01:30 AM 66.2°F19.0°C 65.4°F18.6°C 97% Calm Calm 1.6 mph2.6 kmh 29.75 in1007.5 mb 0.01 in0.3 mm 0.02 in0.5 mm 0.01 in0.3 mm
01:00 AM 66.2°F19.0°C 65.4°F18.6°C 97% Calm Calm 1.6 mph2.6 kmh 29.75 in1007.5 mb 0.00 in0.0 mm 0.00 in0.0 mm 0.00 in0.0 mm
12:30 AM 66.2°F19.0°C 65.1°F18.4°C 96% 0.7 mph NW1.1 kmh NW 3.1 mph5.0 kmh 29.76 in1007.8 mb 0.00 in0.0 mm 0.00 in0.0 mm 0.00 in0.0 mm
12:00 AM 65.8°F18.8°C 64.4°F18.0°C 95% Calm Calm 3.1 mph5.0 kmh 29.77 in1008.1 mb 0.00 in0.0 mm 0.00 in0.0 mm 0.00 in0.0 mm